Knickerbocker — WDC7987 — position and weather

sailwx.info

Track history (hours):
 
Tides and Currents Weather Stations Pressure Air Temp Water Temp Dewpoint Dewpoint Depression Visibility Wind Speed Wind Dir Waves Ship Positions

Knickerbocker

Owner: Christopher Corp., Newport, RI. More information available from US FCC via Universal Licensing System and Coast Guard Vessel Documentation Center.

Last reported at 2016-Aug-31 23:27 UTC. Time now 2016-Sep-01 01:53 UTC.
Position N 41°01' W 072°17'.

Length 36 m; draft 3.6 m.

Type: Sailing vessel. MMSI: 367079960.

Date/timePositionNaut miles runAvg speedWind from/ knotsBaromVisibWave heightAir tempDewpointWater temp
2016-Aug-31 23:27N 41°01' W 072°17'0 0.0
2016-Aug-30 00:18N 41°01' W 072°17'5 6.6
2016-Aug-29 23:33N 41°05' W 072°13'7 6.5
2016-Aug-29 22:31N 41°10' W 072°18'9 8.8
2016-Aug-29 21:33N 41°08' W 072°28'50 1.4
2016-Aug-28 09:33N 40°53' W 073°32'0 0.0
2016-Aug-28 08:33N 40°53' W 073°32'0 0.0
2016-Aug-28 07:33N 40°53' W 073°32'0 0.0
2016-Aug-28 06:34N 40°53' W 073°32'0 0.0
2016-Aug-28 05:33N 40°53' W 073°32'0 0.0
2016-Aug-28 04:33N 40°53' W 073°32'0 0.0
2016-Aug-28 03:33N 40°53' W 073°32'0 0.0
2016-Aug-28 02:33N 40°53' W 073°32'0 0.0
2016-Aug-28 01:34N 40°53' W 073°32'3 3.2
2016-Aug-28 00:34N 40°56' W 073°31'2 1.7
2016-Aug-27 23:33N 40°57' W 073°29'  
Track history (hours):
 
Tides and Currents Weather Stations Pressure Air Temp Water Temp Dewpoint Dewpoint Depression Visibility Wind Speed Wind Dir Waves Ship Positions

Knickerbocker

Owner: Christopher Corp., Newport, RI. More information available from US FCC via Universal Licensing System and Coast Guard Vessel Documentation Center.

Last reported at 2016-Aug-31 23:27 UTC. Time now 2016-Sep-01 01:53 UTC.
Position N 41°01' W 072°17'.

Length 36 m; draft 3.6 m.

Type: Sailing vessel. MMSI: 367079960.

Date/timePositionNaut miles runAvg speedWind from/ knotsBaromVisibWave heightAir tempDewpointWater temp
2016-Aug-31 23:27N 41°01' W 072°17'0 0.0
2016-Aug-30 00:18N 41°01' W 072°17'5 6.6
2016-Aug-29 23:33N 41°05' W 072°13'7 6.5
2016-Aug-29 22:31N 41°10' W 072°18'9 8.8
2016-Aug-29 21:33N 41°08' W 072°28'50 1.4
2016-Aug-28 09:33N 40°53' W 073°32'0 0.0
2016-Aug-28 08:33N 40°53' W 073°32'0 0.0
2016-Aug-28 07:33N 40°53' W 073°32'0 0.0
2016-Aug-28 06:34N 40°53' W 073°32'0 0.0
2016-Aug-28 05:33N 40°53' W 073°32'0 0.0
2016-Aug-28 04:33N 40°53' W 073°32'0 0.0
2016-Aug-28 03:33N 40°53' W 073°32'0 0.0
2016-Aug-28 02:33N 40°53' W 073°32'0 0.0
2016-Aug-28 01:34N 40°53' W 073°32'3 3.2
2016-Aug-28 00:34N 40°56' W 073°31'2 1.7
2016-Aug-27 23:33N 40°57' W 073°29'  

Dump ship's entire track history